sensor_id;sensor_type;location;lat;lon;timestamp;P1;durP1;ratioP1;P2;durP2;ratioP2
36443;SDS011;24692;45.642;13.806;2024-03-08T00:01:08;8.37;;;6.73;;
36443;SDS011;24692;45.642;13.806;2024-03-08T00:03:34;9.60;;;7.00;;
36443;SDS011;24692;45.642;13.806;2024-03-08T00:05:59;9.83;;;7.20;;
36443;SDS011;24692;45.642;13.806;2024-03-08T00:08:25;9.37;;;6.80;;
36443;SDS011;24692;45.642;13.806;2024-03-08T00:10:50;10.77;;;7.00;;
36443;SDS011;24692;45.642;13.806;2024-03-08T00:13:16;9.40;;;7.07;;
36443;SDS011;24692;45.642;13.806;2024-03-08T00:15:42;11.57;;;7.20;;
36443;SDS011;24692;45.642;13.806;2024-03-08T00:18:07;9.10;;;6.70;;
36443;SDS011;24692;45.642;13.806;2024-03-08T00:20:33;9.73;;;7.37;;
36443;SDS011;24692;45.642;13.806;2024-03-08T00:22:58;8.93;;;6.33;;
36443;SDS011;24692;45.642;13.806;2024-03-08T00:25:24;8.67;;;6.60;;
36443;SDS011;24692;45.642;13.806;2024-03-08T00:27:50;9.07;;;6.47;;
36443;SDS011;24692;45.642;13.806;2024-03-08T00:30:16;9.03;;;6.77;;
36443;SDS011;24692;45.642;13.806;2024-03-08T00:32:41;7.47;;;6.13;;
36443;SDS011;24692;45.642;13.806;2024-03-08T00:35:07;10.00;;;6.60;;
36443;SDS011;24692;45.642;13.806;2024-03-08T00:37:33;8.67;;;6.57;;
36443;SDS011;24692;45.642;13.806;2024-03-08T00:39:59;7.60;;;6.07;;
36443;SDS011;24692;45.642;13.806;2024-03-08T00:42:25;8.27;;;6.40;;
36443;SDS011;24692;45.642;13.806;2024-03-08T00:44:50;9.60;;;6.70;;
36443;SDS011;24692;45.642;13.806;2024-03-08T00:47:16;10.03;;;6.97;;
36443;SDS011;24692;45.642;13.806;2024-03-08T00:49:42;9.63;;;6.93;;
36443;SDS011;24692;45.642;13.806;2024-03-08T00:52:08;9.60;;;6.80;;
36443;SDS011;24692;45.642;13.806;2024-03-08T00:54:34;8.27;;;6.67;;
36443;SDS011;24692;45.642;13.806;2024-03-08T00:57:01;8.90;;;6.83;;
36443;SDS011;24692;45.642;13.806;2024-03-08T00:59:28;7.83;;;6.23;;
36443;SDS011;24692;45.642;13.806;2024-03-08T01:01:54;9.37;;;6.80;;
36443;SDS011;24692;45.642;13.806;2024-03-08T01:04:20;7.37;;;6.07;;
36443;SDS011;24692;45.642;13.806;2024-03-08T01:06:46;9.20;;;6.90;;
36443;SDS011;24692;45.642;13.806;2024-03-08T01:09:12;9.17;;;6.50;;
36443;SDS011;24692;45.642;13.806;2024-03-08T01:11:38;9.33;;;6.50;;
36443;SDS011;24692;45.642;13.806;2024-03-08T01:14:04;7.63;;;6.30;;
36443;SDS011;24692;45.642;13.806;2024-03-08T01:16:30;8.63;;;6.30;;
36443;SDS011;24692;45.642;13.806;2024-03-08T01:18:58;10.03;;;6.77;;
36443;SDS011;24692;45.642;13.806;2024-03-08T01:21:23;9.67;;;6.13;;
36443;SDS011;24692;45.642;13.806;2024-03-08T01:23:49;6.83;;;5.67;;
36443;SDS011;24692;45.642;13.806;2024-03-08T01:26:15;8.30;;;6.30;;
36443;SDS011;24692;45.642;13.806;2024-03-08T01:28:41;8.33;;;6.13;;
36443;SDS011;24692;45.642;13.806;2024-03-08T01:31:06;7.53;;;5.60;;
36443;SDS011;24692;45.642;13.806;2024-03-08T01:33:32;8.40;;;5.80;;
36443;SDS011;24692;45.642;13.806;2024-03-08T01:35:58;7.87;;;6.27;;
36443;SDS011;24692;45.642;13.806;2024-03-08T01:38:23;6.90;;;5.53;;
36443;SDS011;24692;45.642;13.806;2024-03-08T01:40:50;9.20;;;5.80;;
36443;SDS011;24692;45.642;13.806;2024-03-08T01:43:17;9.07;;;5.93;;
36443;SDS011;24692;45.642;13.806;2024-03-08T01:45:47;8.60;;;6.00;;
36443;SDS011;24692;45.642;13.806;2024-03-08T01:48:17;11.27;;;5.23;;
36443;SDS011;24692;45.642;13.806;2024-03-08T01:50:43;7.33;;;5.63;;
36443;SDS011;24692;45.642;13.806;2024-03-08T01:53:09;8.77;;;6.50;;
36443;SDS011;24692;45.642;13.806;2024-03-08T01:55:36;9.50;;;6.40;;
36443;SDS011;24692;45.642;13.806;2024-03-08T01:58:03;8.07;;;6.10;;
36443;SDS011;24692;45.642;13.806;2024-03-08T02:00:30;6.43;;;5.47;;
36443;SDS011;24692;45.642;13.806;2024-03-08T02:02:58;8.67;;;6.10;;
36443;SDS011;24692;45.642;13.806;2024-03-08T02:05:23;8.03;;;5.60;;
36443;SDS011;24692;45.642;13.806;2024-03-08T02:07:50;9.13;;;6.03;;
36443;SDS011;24692;45.642;13.806;2024-03-08T02:10:16;8.73;;;5.93;;
36443;SDS011;24692;45.642;13.806;2024-03-08T02:12:44;10.43;;;6.00;;
36443;SDS011;24692;45.642;13.806;2024-03-08T02:15:12;8.00;;;5.73;;
36443;SDS011;24692;45.642;13.806;2024-03-08T02:17:37;7.80;;;6.30;;
36443;SDS011;24692;45.642;13.806;2024-03-08T02:20:03;8.20;;;5.80;;
36443;SDS011;24692;45.642;13.806;2024-03-08T02:22:30;8.13;;;5.87;;
36443;SDS011;24692;45.642;13.806;2024-03-08T02:24:57;8.50;;;5.93;;
36443;SDS011;24692;45.642;13.806;2024-03-08T02:27:26;9.43;;;6.43;;
36443;SDS011;24692;45.642;13.806;2024-03-08T02:29:54;7.10;;;5.73;;
36443;SDS011;24692;45.642;13.806;2024-03-08T02:32:24;8.53;;;6.00;;
36443;SDS011;24692;45.642;13.806;2024-03-08T02:34:50;8.10;;;5.83;;
36443;SDS011;24692;45.642;13.806;2024-03-08T02:37:16;8.40;;;6.00;;
36443;SDS011;24692;45.642;13.806;2024-03-08T02:39:42;8.37;;;5.50;;
36443;SDS011;24692;45.642;13.806;2024-03-08T02:42:08;7.97;;;5.60;;
36443;SDS011;24692;45.642;13.806;2024-03-08T02:44:34;6.70;;;5.70;;
36443;SDS011;24692;45.642;13.806;2024-03-08T02:47:00;7.37;;;5.70;;
36443;SDS011;24692;45.642;13.806;2024-03-08T02:49:25;8.23;;;5.60;;
36443;SDS011;24692;45.642;13.806;2024-03-08T02:51:52;8.97;;;6.00;;
36443;SDS011;24692;45.642;13.806;2024-03-08T02:54:18;6.97;;;5.63;;
36443;SDS011;24692;45.642;13.806;2024-03-08T02:56:44;7.67;;;5.87;;
36443;SDS011;24692;45.642;13.806;2024-03-08T02:59:16;7.43;;;5.77;;
36443;SDS011;24692;45.642;13.806;2024-03-08T03:01:42;9.53;;;5.47;;
36443;SDS011;24692;45.642;13.806;2024-03-08T03:04:08;7.73;;;5.10;;
36443;SDS011;24692;45.642;13.806;2024-03-08T03:06:34;7.07;;;5.67;;
36443;SDS011;24692;45.642;13.806;2024-03-08T03:08:59;8.10;;;5.33;;
36443;SDS011;24692;45.642;13.806;2024-03-08T03:11:25;8.10;;;5.87;;
36443;SDS011;24692;45.642;13.806;2024-03-08T03:13:51;8.03;;;6.00;;
36443;SDS011;24692;45.642;13.806;2024-03-08T03:16:17;7.87;;;5.53;;
36443;SDS011;24692;45.642;13.806;2024-03-08T03:18:47;9.47;;;5.93;;
36443;SDS011;24692;45.642;13.806;2024-03-08T03:21:13;7.73;;;5.60;;
36443;SDS011;24692;45.642;13.806;2024-03-08T03:23:39;7.47;;;5.70;;
36443;SDS011;24692;45.642;13.806;2024-03-08T03:26:05;8.00;;;5.87;;
36443;SDS011;24692;45.642;13.806;2024-03-08T03:28:36;8.20;;;5.83;;
36443;SDS011;24692;45.642;13.806;2024-03-08T03:31:04;7.23;;;5.80;;
36443;SDS011;24692;45.642;13.806;2024-03-08T03:33:34;7.77;;;5.90;;
36443;SDS011;24692;45.642;13.806;2024-03-08T03:36:01;8.43;;;5.93;;
36443;SDS011;24692;45.642;13.806;2024-03-08T03:38:28;8.37;;;5.83;;
36443;SDS011;24692;45.642;13.806;2024-03-08T03:40:53;8.63;;;6.10;;
36443;SDS011;24692;45.642;13.806;2024-03-08T03:43:22;8.37;;;6.10;;
36443;SDS011;24692;45.642;13.806;2024-03-08T03:45:48;8.23;;;6.37;;
36443;SDS011;24692;45.642;13.806;2024-03-08T03:48:14;7.57;;;6.23;;
36443;SDS011;24692;45.642;13.806;2024-03-08T03:50:39;8.73;;;6.03;;
36443;SDS011;24692;45.642;13.806;2024-03-08T03:53:05;8.43;;;6.50;;
36443;SDS011;24692;45.642;13.806;2024-03-08T03:55:34;9.77;;;6.23;;
36443;SDS011;24692;45.642;13.806;2024-03-08T03:58:03;8.63;;;6.63;;
36443;SDS011;24692;45.642;13.806;2024-03-08T04:00:29;8.20;;;6.30;;
36443;SDS011;24692;45.642;13.806;2024-03-08T04:02:55;9.07;;;6.63;;
36443;SDS011;24692;45.642;13.806;2024-03-08T04:05:24;8.97;;;6.33;;
36443;SDS011;24692;45.642;13.806;2024-03-08T04:07:50;9.57;;;6.40;;
36443;SDS011;24692;45.642;13.806;2024-03-08T04:10:15;11.70;;;6.83;;
36443;SDS011;24692;45.642;13.806;2024-03-08T04:12:41;9.53;;;7.10;;
36443;SDS011;24692;45.642;13.806;2024-03-08T04:15:07;10.40;;;7.30;;
36443;SDS011;24692;45.642;13.806;2024-03-08T04:17:33;9.77;;;6.97;;
36443;SDS011;24692;45.642;13.806;2024-03-08T04:20:05;10.87;;;7.20;;
36443;SDS011;24692;45.642;13.806;2024-03-08T04:22:35;12.03;;;7.40;;
36443;SDS011;24692;45.642;13.806;2024-03-08T04:25:02;10.47;;;7.87;;
36443;SDS011;24692;45.642;13.806;2024-03-08T04:27:28;11.27;;;7.27;;
36443;SDS011;24692;45.642;13.806;2024-03-08T04:29:54;10.67;;;7.77;;
36443;SDS011;24692;45.642;13.806;2024-03-08T04:32:19;12.07;;;7.73;;
36443;SDS011;24692;45.642;13.806;2024-03-08T04:34:45;11.77;;;8.03;;
36443;SDS011;24692;45.642;13.806;2024-03-08T04:37:10;11.23;;;7.90;;
36443;SDS011;24692;45.642;13.806;2024-03-08T04:39:38;11.90;;;8.13;;
36443;SDS011;24692;45.642;13.806;2024-03-08T04:42:04;12.93;;;8.47;;
36443;SDS011;24692;45.642;13.806;2024-03-08T04:44:34;10.83;;;7.93;;
36443;SDS011;24692;45.642;13.806;2024-03-08T04:47:02;13.07;;;8.87;;
36443;SDS011;24692;45.642;13.806;2024-03-08T04:49:29;13.90;;;9.10;;
36443;SDS011;24692;45.642;13.806;2024-03-08T04:51:54;12.03;;;8.40;;
36443;SDS011;24692;45.642;13.806;2024-03-08T04:54:21;13.73;;;9.17;;
36443;SDS011;24692;45.642;13.806;2024-03-08T04:56:46;12.63;;;8.80;;
36443;SDS011;24692;45.642;13.806;2024-03-08T04:59:12;13.73;;;9.07;;
36443;SDS011;24692;45.642;13.806;2024-03-08T05:01:38;14.13;;;9.07;;
36443;SDS011;24692;45.642;13.806;2024-03-08T05:04:04;12.10;;;8.40;;
36443;SDS011;24692;45.642;13.806;2024-03-08T05:06:30;12.80;;;8.83;;
36443;SDS011;24692;45.642;13.806;2024-03-08T05:08:56;12.57;;;8.67;;
36443;SDS011;24692;45.642;13.806;2024-03-08T05:11:22;11.23;;;8.10;;
36443;SDS011;24692;45.642;13.806;2024-03-08T05:13:47;13.53;;;9.00;;
36443;SDS011;24692;45.642;13.806;2024-03-08T05:16:13;15.27;;;9.30;;
36443;SDS011;24692;45.642;13.806;2024-03-08T05:18:40;14.80;;;9.37;;
36443;SDS011;24692;45.642;13.806;2024-03-08T05:21:07;16.60;;;9.80;;
36443;SDS011;24692;45.642;13.806;2024-03-08T05:23:34;14.67;;;9.23;;
36443;SDS011;24692;45.642;13.806;2024-03-08T05:25:59;12.17;;;8.63;;
36443;SDS011;24692;45.642;13.806;2024-03-08T05:28:26;14.80;;;9.90;;
36443;SDS011;24692;45.642;13.806;2024-03-08T05:30:51;13.67;;;9.27;;
36443;SDS011;24692;45.642;13.806;2024-03-08T05:33:21;12.17;;;8.73;;
36443;SDS011;24692;45.642;13.806;2024-03-08T05:35:48;13.37;;;8.80;;
36443;SDS011;24692;45.642;13.806;2024-03-08T05:38:14;15.27;;;9.00;;
36443;SDS011;24692;45.642;13.806;2024-03-08T05:40:40;13.20;;;9.60;;
36443;SDS011;24692;45.642;13.806;2024-03-08T05:43:08;14.53;;;9.70;;
36443;SDS011;24692;45.642;13.806;2024-03-08T05:45:33;17.37;;;9.80;;
36443;SDS011;24692;45.642;13.806;2024-03-08T05:47:59;15.17;;;9.50;;
36443;SDS011;24692;45.642;13.806;2024-03-08T05:50:25;14.07;;;9.30;;
36443;SDS011;24692;45.642;13.806;2024-03-08T05:52:50;12.77;;;9.43;;
36443;SDS011;24692;45.642;13.806;2024-03-08T05:55:17;12.67;;;8.73;;
36443;SDS011;24692;45.642;13.806;2024-03-08T05:57:43;12.47;;;8.90;;
36443;SDS011;24692;45.642;13.806;2024-03-08T06:00:09;13.43;;;9.30;;
36443;SDS011;24692;45.642;13.806;2024-03-08T06:02:40;13.17;;;9.27;;
36443;SDS011;24692;45.642;13.806;2024-03-08T06:05:12;12.77;;;9.17;;
36443;SDS011;24692;45.642;13.806;2024-03-08T06:07:38;12.57;;;9.00;;
36443;SDS011;24692;45.642;13.806;2024-03-08T06:10:05;13.87;;;9.63;;
36443;SDS011;24692;45.642;13.806;2024-03-08T06:12:34;13.97;;;9.57;;
36443;SDS011;24692;45.642;13.806;2024-03-08T06:15:05;13.87;;;9.97;;
36443;SDS011;24692;45.642;13.806;2024-03-08T06:17:31;13.87;;;9.33;;
36443;SDS011;24692;45.642;13.806;2024-03-08T06:19:57;13.80;;;9.17;;
36443;SDS011;24692;45.642;13.806;2024-03-08T06:22:22;13.50;;;9.63;;
36443;SDS011;24692;45.642;13.806;2024-03-08T06:24:48;14.77;;;9.33;;
36443;SDS011;24692;45.642;13.806;2024-03-08T06:27:14;14.40;;;9.97;;
36443;SDS011;24692;45.642;13.806;2024-03-08T06:29:39;14.37;;;9.93;;
36443;SDS011;24692;45.642;13.806;2024-03-08T06:32:05;13.63;;;9.47;;
36443;SDS011;24692;45.642;13.806;2024-03-08T06:34:34;15.23;;;9.87;;
36443;SDS011;24692;45.642;13.806;2024-03-08T06:37:00;15.60;;;9.23;;
36443;SDS011;24692;45.642;13.806;2024-03-08T06:39:26;13.87;;;10.10;;
36443;SDS011;24692;45.642;13.806;2024-03-08T06:41:56;14.47;;;8.90;;
36443;SDS011;24692;45.642;13.806;2024-03-08T06:44:22;14.63;;;9.10;;
36443;SDS011;24692;45.642;13.806;2024-03-08T06:46:48;13.90;;;9.10;;
36443;SDS011;24692;45.642;13.806;2024-03-08T06:49:14;13.43;;;9.63;;
36443;SDS011;24692;45.642;13.806;2024-03-08T06:51:40;14.40;;;9.70;;
36443;SDS011;24692;45.642;13.806;2024-03-08T06:54:06;14.20;;;9.77;;
36443;SDS011;24692;45.642;13.806;2024-03-08T06:56:34;14.70;;;9.60;;
36443;SDS011;24692;45.642;13.806;2024-03-08T06:59:00;13.10;;;8.90;;
36443;SDS011;24692;45.642;13.806;2024-03-08T07:01:28;14.70;;;9.50;;
36443;SDS011;24692;45.642;13.806;2024-03-08T07:03:56;15.97;;;10.03;;
36443;SDS011;24692;45.642;13.806;2024-03-08T07:06:22;14.27;;;9.37;;
36443;SDS011;24692;45.642;13.806;2024-03-08T07:08:48;17.43;;;10.07;;
36443;SDS011;24692;45.642;13.806;2024-03-08T07:11:14;15.07;;;10.17;;
36443;SDS011;24692;45.642;13.806;2024-03-08T07:13:43;15.00;;;9.07;;
36443;SDS011;24692;45.642;13.806;2024-03-08T07:16:10;11.57;;;8.73;;
36443;SDS011;24692;45.642;13.806;2024-03-08T07:18:36;14.43;;;9.67;;
36443;SDS011;24692;45.642;13.806;2024-03-08T07:21:05;15.27;;;9.17;;
36443;SDS011;24692;45.642;13.806;2024-03-08T07:23:30;17.03;;;8.80;;
36443;SDS011;24692;45.642;13.806;2024-03-08T07:26:20;14.37;;;9.07;;
36443;SDS011;24692;45.642;13.806;2024-03-08T07:28:46;13.93;;;9.60;;
36443;SDS011;24692;45.642;13.806;2024-03-08T07:31:11;14.00;;;9.07;;
36443;SDS011;24692;45.642;13.806;2024-03-08T07:33:37;12.17;;;8.50;;
36443;SDS011;24692;45.642;13.806;2024-03-08T07:36:03;11.87;;;7.83;;
36443;SDS011;24692;45.642;13.806;2024-03-08T07:38:30;12.23;;;8.87;;
36443;SDS011;24692;45.642;13.806;2024-03-08T07:40:55;13.03;;;8.23;;
36443;SDS011;24692;45.642;13.806;2024-03-08T07:43:22;14.73;;;9.33;;
36443;SDS011;24692;45.642;13.806;2024-03-08T07:45:48;11.77;;;8.67;;
36443;SDS011;24692;45.642;13.806;2024-03-08T07:48:13;15.17;;;9.30;;
36443;SDS011;24692;45.642;13.806;2024-03-08T07:50:39;13.60;;;9.13;;
36443;SDS011;24692;45.642;13.806;2024-03-08T07:53:06;14.90;;;9.30;;
36443;SDS011;24692;45.642;13.806;2024-03-08T07:55:32;15.53;;;8.47;;
36443;SDS011;24692;45.642;13.806;2024-03-08T07:58:00;12.07;;;9.00;;
36443;SDS011;24692;45.642;13.806;2024-03-08T08:00:26;14.57;;;9.23;;
36443;SDS011;24692;45.642;13.806;2024-03-08T08:02:52;13.33;;;9.13;;
36443;SDS011;24692;45.642;13.806;2024-03-08T08:05:18;13.23;;;8.77;;
36443;SDS011;24692;45.642;13.806;2024-03-08T08:07:44;12.77;;;9.03;;
36443;SDS011;24692;45.642;13.806;2024-03-08T08:10:14;13.03;;;9.13;;
36443;SDS011;24692;45.642;13.806;2024-03-08T08:12:43;11.60;;;8.30;;
36443;SDS011;24692;45.642;13.806;2024-03-08T08:15:10;15.00;;;8.47;;
36443;SDS011;24692;45.642;13.806;2024-03-08T08:17:36;16.33;;;8.53;;
36443;SDS011;24692;45.642;13.806;2024-03-08T08:20:02;14.17;;;9.13;;
36443;SDS011;24692;45.642;13.806;2024-03-08T08:22:30;13.37;;;8.50;;
36443;SDS011;24692;45.642;13.806;2024-03-08T08:24:56;11.73;;;8.83;;
36443;SDS011;24692;45.642;13.806;2024-03-08T08:27:22;11.70;;;8.23;;
36443;SDS011;24692;45.642;13.806;2024-03-08T08:29:47;11.67;;;7.77;;
36443;SDS011;24692;45.642;13.806;2024-03-08T08:32:14;12.40;;;8.10;;
36443;SDS011;24692;45.642;13.806;2024-03-08T08:34:40;13.10;;;9.27;;
36443;SDS011;24692;45.642;13.806;2024-03-08T08:37:07;14.53;;;8.17;;
36443;SDS011;24692;45.642;13.806;2024-03-08T08:39:34;12.30;;;8.57;;
36443;SDS011;24692;45.642;13.806;2024-03-08T08:42:00;14.87;;;9.10;;
36443;SDS011;24692;45.642;13.806;2024-03-08T08:44:27;11.37;;;8.57;;
36443;SDS011;24692;45.642;13.806;2024-03-08T08:46:53;13.13;;;7.80;;
36443;SDS011;24692;45.642;13.806;2024-03-08T08:49:19;12.63;;;8.43;;
36443;SDS011;24692;45.642;13.806;2024-03-08T08:51:49;11.13;;;8.23;;
36443;SDS011;24692;45.642;13.806;2024-03-08T08:54:18;12.77;;;8.37;;
36443;SDS011;24692;45.642;13.806;2024-03-08T08:56:44;12.93;;;8.77;;
36443;SDS011;24692;45.642;13.806;2024-03-08T08:59:10;12.67;;;9.10;;
36443;SDS011;24692;45.642;13.806;2024-03-08T09:01:39;13.77;;;8.20;;
36443;SDS011;24692;45.642;13.806;2024-03-08T09:04:05;11.47;;;8.63;;
36443;SDS011;24692;45.642;13.806;2024-03-08T09:06:31;11.10;;;8.50;;
36443;SDS011;24692;45.642;13.806;2024-03-08T09:08:57;13.57;;;7.90;;
36443;SDS011;24692;45.642;13.806;2024-03-08T09:11:23;11.80;;;8.30;;
36443;SDS011;24692;45.642;13.806;2024-03-08T09:13:50;12.57;;;8.43;;
36443;SDS011;24692;45.642;13.806;2024-03-08T09:16:17;10.43;;;7.70;;
36443;SDS011;24692;45.642;13.806;2024-03-08T09:18:49;11.10;;;7.63;;
36443;SDS011;24692;45.642;13.806;2024-03-08T09:21:15;11.30;;;7.80;;
36443;SDS011;24692;45.642;13.806;2024-03-08T09:23:44;12.87;;;7.50;;
36443;SDS011;24692;45.642;13.806;2024-03-08T09:26:10;13.17;;;7.17;;
36443;SDS011;24692;45.642;13.806;2024-03-08T09:28:37;12.10;;;7.80;;
36443;SDS011;24692;45.642;13.806;2024-03-08T09:31:04;11.83;;;7.93;;
36443;SDS011;24692;45.642;13.806;2024-03-08T09:33:30;10.13;;;7.60;;
36443;SDS011;24692;45.642;13.806;2024-03-08T09:35:56;10.10;;;7.43;;
36443;SDS011;24692;45.642;13.806;2024-03-08T09:38:24;11.13;;;7.90;;
36443;SDS011;24692;45.642;13.806;2024-03-08T09:40:51;12.33;;;8.07;;
36443;SDS011;24692;45.642;13.806;2024-03-08T09:43:18;8.97;;;7.30;;
36443;SDS011;24692;45.642;13.806;2024-03-08T09:45:45;11.83;;;8.30;;
36443;SDS011;24692;45.642;13.806;2024-03-08T09:48:14;14.13;;;7.83;;
36443;SDS011;24692;45.642;13.806;2024-03-08T09:50:44;16.23;;;8.40;;
36443;SDS011;24692;45.642;13.806;2024-03-08T09:53:11;16.23;;;7.93;;
36443;SDS011;24692;45.642;13.806;2024-03-08T09:55:39;13.33;;;8.43;;
36443;SDS011;24692;45.642;13.806;2024-03-08T09:58:11;20.13;;;7.57;;
36443;SDS011;24692;45.642;13.806;2024-03-08T10:00:56;11.63;;;7.80;;
36443;SDS011;24692;45.642;13.806;2024-03-08T10:03:26;13.93;;;7.83;;
36443;SDS011;24692;45.642;13.806;2024-03-08T10:05:53;16.53;;;8.10;;
36443;SDS011;24692;45.642;13.806;2024-03-08T10:08:21;12.90;;;7.00;;
36443;SDS011;24692;45.642;13.806;2024-03-08T10:10:47;15.70;;;8.20;;
36443;SDS011;24692;45.642;13.806;2024-03-08T10:13:14;12.60;;;7.80;;
36443;SDS011;24692;45.642;13.806;2024-03-08T10:15:41;10.70;;;6.90;;
36443;SDS011;24692;45.642;13.806;2024-03-08T10:18:09;10.83;;;7.30;;
36443;SDS011;24692;45.642;13.806;2024-03-08T10:20:35;9.67;;;7.33;;
36443;SDS011;24692;45.642;13.806;2024-03-08T10:23:02;14.30;;;6.93;;
36443;SDS011;24692;45.642;13.806;2024-03-08T10:25:30;11.97;;;7.53;;
36443;SDS011;24692;45.642;13.806;2024-03-08T10:27:57;10.07;;;7.43;;
36443;SDS011;24692;45.642;13.806;2024-03-08T10:30:23;12.43;;;8.10;;
36443;SDS011;24692;45.642;13.806;2024-03-08T10:32:48;8.90;;;7.33;;
36443;SDS011;24692;45.642;13.806;2024-03-08T10:35:15;8.77;;;7.03;;
36443;SDS011;24692;45.642;13.806;2024-03-08T10:37:45;9.20;;;7.27;;
36443;SDS011;24692;45.642;13.806;2024-03-08T10:40:18;10.20;;;7.40;;
36443;SDS011;24692;45.642;13.806;2024-03-08T10:42:54;8.67;;;7.20;;
36443;SDS011;24692;45.642;13.806;2024-03-08T10:45:36;9.03;;;7.37;;
36443;SDS011;24692;45.642;13.806;2024-03-08T10:50:53;10.50;;;7.43;;
36443;SDS011;24692;45.642;13.806;2024-03-08T10:53:19;9.40;;;7.47;;
36443;SDS011;24692;45.642;13.806;2024-03-08T10:55:47;9.50;;;7.50;;
36443;SDS011;24692;45.642;13.806;2024-03-08T10:58:18;9.87;;;7.90;;
36443;SDS011;24692;45.642;13.806;2024-03-08T11:00:46;10.00;;;7.33;;
36443;SDS011;24692;45.642;13.806;2024-03-08T11:06:09;11.60;;;7.67;;
36443;SDS011;24692;45.642;13.806;2024-03-08T11:08:41;11.20;;;8.03;;
36443;SDS011;24692;45.642;13.806;2024-03-08T11:11:23;12.80;;;8.27;;
36443;SDS011;24692;45.642;13.806;2024-03-08T11:13:55;14.27;;;8.70;;
36443;SDS011;24692;45.642;13.806;2024-03-08T11:18:53;10.83;;;7.77;;
36443;SDS011;24692;45.642;13.806;2024-03-08T11:21:29;9.23;;;7.57;;
36443;SDS011;24692;45.642;13.806;2024-03-08T11:24:01;11.07;;;8.00;;
36443;SDS011;24692;45.642;13.806;2024-03-08T11:26:36;13.63;;;8.13;;
36443;SDS011;24692;45.642;13.806;2024-03-08T11:34:35;10.10;;;8.07;;
36443;SDS011;24692;45.642;13.806;2024-03-08T11:37:05;10.70;;;8.27;;
36443;SDS011;24692;45.642;13.806;2024-03-08T11:39:46;11.13;;;8.43;;
36443;SDS011;24692;45.642;13.806;2024-03-08T11:42:23;12.77;;;8.67;;
36443;SDS011;24692;45.642;13.806;2024-03-08T11:44:51;10.83;;;8.00;;
36443;SDS011;24692;45.642;13.806;2024-03-08T11:47:18;10.83;;;8.07;;
36443;SDS011;24692;45.642;13.806;2024-03-08T11:49:44;10.10;;;8.00;;
36443;SDS011;24692;45.642;13.806;2024-03-08T11:52:12;12.43;;;7.87;;
36443;SDS011;24692;45.642;13.806;2024-03-08T11:54:42;9.97;;;7.70;;
36443;SDS011;24692;45.642;13.806;2024-03-08T11:57:21;11.17;;;8.47;;
36443;SDS011;24692;45.642;13.806;2024-03-08T11:59:52;12.83;;;7.50;;
36443;SDS011;24692;45.642;13.806;2024-03-08T12:02:18;12.90;;;8.37;;
36443;SDS011;24692;45.642;13.806;2024-03-08T12:04:44;9.63;;;7.77;;
36443;SDS011;24692;45.642;13.806;2024-03-08T12:07:13;10.40;;;7.83;;
36443;SDS011;24692;45.642;13.806;2024-03-08T12:09:43;10.03;;;7.53;;
36443;SDS011;24692;45.642;13.806;2024-03-08T12:12:11;10.77;;;7.57;;
36443;SDS011;24692;45.642;13.806;2024-03-08T12:14:50;11.73;;;8.10;;
36443;SDS011;24692;45.642;13.806;2024-03-08T12:17:16;9.23;;;7.33;;
36443;SDS011;24692;45.642;13.806;2024-03-08T12:19:45;10.07;;;7.80;;
36443;SDS011;24692;45.642;13.806;2024-03-08T12:22:12;10.87;;;7.47;;
36443;SDS011;24692;45.642;13.806;2024-03-08T12:24:40;11.13;;;8.03;;
36443;SDS011;24692;45.642;13.806;2024-03-08T12:27:18;9.17;;;7.13;;
36443;SDS011;24692;45.642;13.806;2024-03-08T12:29:45;9.80;;;7.70;;
36443;SDS011;24692;45.642;13.806;2024-03-08T12:32:12;9.93;;;7.67;;
36443;SDS011;24692;45.642;13.806;2024-03-08T12:34:37;10.73;;;7.33;;
36443;SDS011;24692;45.642;13.806;2024-03-08T12:37:03;10.13;;;7.10;;
36443;SDS011;24692;45.642;13.806;2024-03-08T12:39:32;9.43;;;7.07;;
36443;SDS011;24692;45.642;13.806;2024-03-08T12:41:58;10.37;;;7.57;;
36443;SDS011;24692;45.642;13.806;2024-03-08T12:44:25;10.73;;;7.57;;
36443;SDS011;24692;45.642;13.806;2024-03-08T12:46:51;10.60;;;7.87;;
36443;SDS011;24692;45.642;13.806;2024-03-08T12:49:18;12.47;;;7.60;;
36443;SDS011;24692;45.642;13.806;2024-03-08T12:51:47;10.03;;;7.67;;
36443;SDS011;24692;45.642;13.806;2024-03-08T12:54:13;10.30;;;7.60;;
36443;SDS011;24692;45.642;13.806;2024-03-08T12:56:39;11.13;;;8.30;;
36443;SDS011;24692;45.642;13.806;2024-03-08T12:59:05;10.20;;;8.10;;
36443;SDS011;24692;45.642;13.806;2024-03-08T13:01:35;13.37;;;7.63;;
36443;SDS011;24692;45.642;13.806;2024-03-08T13:04:02;10.53;;;7.43;;
36443;SDS011;24692;45.642;13.806;2024-03-08T13:06:29;9.53;;;7.37;;
36443;SDS011;24692;45.642;13.806;2024-03-08T13:08:56;9.70;;;7.33;;
36443;SDS011;24692;45.642;13.806;2024-03-08T13:11:23;10.57;;;7.20;;
36443;SDS011;24692;45.642;13.806;2024-03-08T13:13:50;9.87;;;7.07;;
36443;SDS011;24692;45.642;13.806;2024-03-08T13:16:17;8.10;;;6.80;;
36443;SDS011;24692;45.642;13.806;2024-03-08T13:18:44;10.60;;;7.10;;
36443;SDS011;24692;45.642;13.806;2024-03-08T13:21:10;9.10;;;7.63;;
36443;SDS011;24692;45.642;13.806;2024-03-08T13:23:38;9.93;;;7.20;;
36443;SDS011;24692;45.642;13.806;2024-03-08T13:26:06;8.87;;;6.70;;
36443;SDS011;24692;45.642;13.806;2024-03-08T13:28:32;8.53;;;7.10;;
36443;SDS011;24692;45.642;13.806;2024-03-08T13:31:03;8.60;;;6.57;;
36443;SDS011;24692;45.642;13.806;2024-03-08T13:33:32;8.70;;;6.70;;
36443;SDS011;24692;45.642;13.806;2024-03-08T13:36:00;8.53;;;6.60;;
36443;SDS011;24692;45.642;13.806;2024-03-08T13:38:27;8.53;;;6.73;;
36443;SDS011;24692;45.642;13.806;2024-03-08T13:40:53;10.50;;;6.97;;
36443;SDS011;24692;45.642;13.806;2024-03-08T13:43:18;8.60;;;6.33;;
36443;SDS011;24692;45.642;13.806;2024-03-08T13:45:44;12.00;;;7.07;;
36443;SDS011;24692;45.642;13.806;2024-03-08T13:48:11;8.57;;;6.47;;
36443;SDS011;24692;45.642;13.806;2024-03-08T13:50:38;8.50;;;6.60;;
36443;SDS011;24692;45.642;13.806;2024-03-08T13:53:04;8.20;;;6.30;;
36443;SDS011;24692;45.642;13.806;2024-03-08T13:55:30;7.57;;;6.00;;
36443;SDS011;24692;45.642;13.806;2024-03-08T13:57:56;8.67;;;6.00;;
36443;SDS011;24692;45.642;13.806;2024-03-08T14:00:22;8.40;;;6.10;;
36443;SDS011;24692;45.642;13.806;2024-03-08T14:02:51;6.93;;;5.90;;
36443;SDS011;24692;45.642;13.806;2024-03-08T14:05:17;8.00;;;5.90;;
36443;SDS011;24692;45.642;13.806;2024-03-08T14:07:44;7.63;;;6.03;;
36443;SDS011;24692;45.642;13.806;2024-03-08T14:10:13;9.63;;;6.33;;
36443;SDS011;24692;45.642;13.806;2024-03-08T14:12:39;9.37;;;5.87;;
36443;SDS011;24692;45.642;13.806;2024-03-08T14:15:05;9.20;;;6.30;;
36443;SDS011;24692;45.642;13.806;2024-03-08T14:17:31;7.03;;;5.60;;
36443;SDS011;24692;45.642;13.806;2024-03-08T14:19:58;7.40;;;5.70;;
36443;SDS011;24692;45.642;13.806;2024-03-08T14:22:24;7.57;;;5.80;;
36443;SDS011;24692;45.642;13.806;2024-03-08T14:24:49;8.50;;;6.30;;
36443;SDS011;24692;45.642;13.806;2024-03-08T14:27:16;10.63;;;5.93;;
36443;SDS011;24692;45.642;13.806;2024-03-08T14:29:43;9.37;;;5.80;;
36443;SDS011;24692;45.642;13.806;2024-03-08T14:32:09;8.57;;;5.97;;
36443;SDS011;24692;45.642;13.806;2024-03-08T14:34:35;7.00;;;5.40;;
36443;SDS011;24692;45.642;13.806;2024-03-08T14:37:01;8.00;;;5.47;;
36443;SDS011;24692;45.642;13.806;2024-03-08T14:39:30;7.57;;;5.90;;